Time;durP1;ratioP1;P1;durP2;ratioP2;P2;SDS_P1;SDS_P2;PMS_P1;PMS_P2;Temp;Humidity;BMP_temperature;BMP_pressure;BME280_temperature;BME280_humidity;BME280_pressure;Samples;Min_cycle;Max_cycle;Signal;HPM_P1;HPM_P2
2023/02/07 00:12:44;;;;;;;43.65;14.32;;;-4.50;98.70;;;;;;4720347;30;20091;-89
2023/02/07 01:18:33;;;;;;;44.67;15.73;;;-4.60;99.90;;;;;;1938969;24;20227;-94
2023/02/07 01:21:26;;;;;;;49.22;17.17;;;-4.70;99.90;;;;;;4690739;30;20058;-88
2023/02/07 01:24:17;;;;;;;60.47;16.95;;;-4.60;99.90;;;;;;4836227;24;20040;31
2023/02/07 01:27:40;;;;;;;40.50;13.52;;;-4.70;99.90;;;;;;5636333;24;20039;31
2023/02/07 01:30:26;;;;;;;38.78;11.77;;;-4.70;99.90;;;;;;4813325;24;20053;31
2023/02/07 01:36:42;;;;;;;47.72;12.90;;;-4.70;99.90;;;;;;4797222;24;20038;31
2023/02/07 02:08:58;;;;;;;44.40;13.43;;;-4.90;99.90;;;;;;1248128;24;20316;-90
2023/02/07 02:11:56;;;;;;;38.83;13.40;;;-5.00;99.90;;;;;;4743322;30;20060;-90
2023/02/07 02:14:34;;;;;;;38.65;13.55;;;-5.00;99.90;;;;;;4737519;30;20057;-90
2023/02/07 02:17:05;;;;;;;51.63;16.73;;;-5.00;99.90;;;;;;4759316;30;20063;-90
2023/02/07 02:19:42;;;;;;;39.47;14.32;;;-5.00;99.90;;;;;;4745616;30;20049;-88
2023/02/07 02:22:24;;;;;;;54.47;15.65;;;-5.00;99.90;;;;;;4746185;30;20036;-90
2023/02/07 02:25:21;;;;;;;45.72;12.48;;;-5.00;99.90;;;;;;4741900;30;20056;-88
2023/02/07 02:28:35;;;;;;;42.08;14.90;;;-5.00;99.90;;;;;;4722153;30;20105;-90
2023/02/07 02:31:18;;;;;;;48.35;16.17;;;-5.00;99.90;;;;;;4749467;30;20053;-90
2023/02/07 02:33:56;;;;;;;41.90;14.52;;;-5.10;99.90;;;;;;4758406;30;20044;-88
2023/02/07 02:36:50;;;;;;;47.03;14.73;;;-5.10;99.90;;;;;;4755144;30;20154;-89
2023/02/07 02:39:29;;;;;;;46.40;15.82;;;-3.80;99.90;;;;;;4741743;30;20053;-86
2023/02/07 02:42:00;;;;;;;46.70;15.02;;;-5.20;99.90;;;;;;4755090;30;20056;-90
2023/02/07 02:44:37;;;;;;;49.13;15.40;;;-5.20;99.90;;;;;;4743953;30;20100;-88
2023/02/07 02:47:04;;;;;;;53.05;16.65;;;-5.20;99.90;;;;;;4743819;30;20084;-90
2023/02/07 02:49:33;;;;;;;47.60;16.95;;;-5.20;99.90;;;;;;4728031;30;20048;-90
2023/02/07 02:52:00;;;;;;;38.97;16.27;;;-4.30;99.90;;;;;;4743362;30;20049;-89
2023/02/07 02:54:36;;;;;;;44.20;15.45;;;-5.20;99.90;;;;;;4742202;30;20059;-89
2023/02/07 02:57:20;;;;;;;42.83;13.63;;;-5.30;99.90;;;;;;4744472;30;20097;-89
2023/02/07 03:00:21;;;;;;;41.30;13.30;;;-5.20;99.90;;;;;;4733694;30;20119;-90
2023/02/07 03:03:16;;;;;;;43.30;13.90;;;-5.30;99.90;;;;;;4747929;30;20057;-90
2023/02/07 03:06:17;;;;;;;34.22;11.95;;;-5.30;99.90;;;;;;4750754;30;20064;-88
2023/02/07 03:08:56;;;;;;;42.30;14.73;;;-5.30;99.90;;;;;;4757218;30;20044;-91
2023/02/07 03:11:24;;;;;;;40.70;14.15;;;-5.30;99.90;;;;;;4739697;30;20072;-88
2023/02/07 03:14:29;;;;;;;39.10;15.07;;;-5.30;99.90;;;;;;4757810;30;20066;-89
2023/02/07 03:17:14;;;;;;;47.22;14.77;;;-5.30;99.90;;;;;;4739848;30;20143;-90
2023/02/07 03:20:02;;;;;;;32.22;11.82;;;-5.40;99.90;;;;;;4751567;30;20116;-89
2023/02/07 03:22:30;;;;;;;41.05;13.82;;;-5.40;99.90;;;;;;4738879;30;20071;-91
2023/02/07 03:25:00;;;;;;;43.15;13.95;;;-4.90;99.90;;;;;;4743949;30;20044;-89
2023/02/07 03:27:32;;;;;;;47.60;13.87;;;-5.40;99.90;;;;;;4741526;30;20064;-90
2023/02/07 03:30:04;;;;;;;38.15;14.57;;;-5.30;99.90;;;;;;4737980;30;20049;-89
2023/02/07 03:32:37;;;;;;;45.08;13.40;;;-5.30;99.90;;;;;;4720379;30;20124;-91
2023/02/07 03:35:26;;;;;;;42.58;14.65;;;-5.40;99.90;;;;;;4732273;30;20060;-91
2023/02/07 03:37:59;;;;;;;52.15;15.25;;;-5.40;99.90;;;;;;4732581;30;20120;-89
2023/02/07 03:40:34;;;;;;;50.53;15.57;;;-5.40;99.90;;;;;;4719040;30;20081;-89
2023/02/07 03:43:04;;;;;;;42.13;14.18;;;-5.50;99.90;;;;;;4716980;30;20049;-90
2023/02/07 03:45:32;;;;;;;39.40;11.90;;;-5.10;99.90;;;;;;4722482;30;20058;-90
2023/02/07 03:47:59;;;;;;;53.22;14.48;;;-5.40;99.90;;;;;;4718451;30;20060;-89
2023/02/07 03:50:27;;;;;;;35.92;12.43;;;-5.50;99.90;;;;;;4730784;30;20059;-89
2023/02/07 03:52:54;;;;;;;44.78;14.15;;;-5.00;99.90;;;;;;4717531;30;20053;-89
2023/02/07 03:55:23;;;;;;;39.38;13.95;;;-5.40;99.90;;;;;;4733190;30;20069;-87
2023/02/07 03:57:50;;;;;;;38.20;14.05;;;-5.10;99.90;;;;;;4733892;30;20064;-88
2023/02/07 04:00:17;;;;;;;51.10;12.88;;;-5.50;99.90;;;;;;4719126;30;20057;-87
2023/02/07 04:02:44;;;;;;;40.53;12.05;;;-5.50;99.90;;;;;;4740349;30;20045;-89
2023/02/07 04:05:11;;;;;;;41.78;14.60;;;-5.60;99.90;;;;;;4734464;30;20053;-90
2023/02/07 04:07:39;;;;;;;32.63;12.63;;;-5.50;99.90;;;;;;4739341;30;20044;-86
2023/02/07 04:10:07;;;;;;;55.35;15.18;;;-5.60;99.90;;;;;;4754469;30;20058;-90
2023/02/07 04:12:34;;;;;;;46.25;14.68;;;-5.60;99.90;;;;;;4742396;30;20112;-89
2023/02/07 04:15:03;;;;;;;38.92;14.23;;;-5.60;99.90;;;;;;4754012;30;20135;-90
2023/02/07 04:17:31;;;;;;;47.25;14.82;;;-5.60;99.90;;;;;;4740337;30;20052;-89
2023/02/07 04:20:00;;;;;;;42.55;13.95;;;-5.60;99.90;;;;;;4740080;30;20104;-89
2023/02/07 04:22:28;;;;;;;36.75;12.45;;;-4.80;99.90;;;;;;4737690;30;20052;-91
2023/02/07 04:24:57;;;;;;;45.10;14.60;;;-5.60;99.90;;;;;;4739886;30;20048;-90
2023/02/07 04:27:24;;;;;;;44.42;12.73;;;-5.70;99.90;;;;;;4737100;30;20033;-90
2023/02/07 04:29:52;;;;;;;45.10;15.93;;;-5.60;99.90;;;;;;4742033;30;20056;-89
2023/02/07 04:32:20;;;;;;;43.17;14.77;;;-5.70;99.90;;;;;;4738202;30;20046;-89
2023/02/07 04:34:49;;;;;;;43.72;14.82;;;-5.70;99.90;;;;;;4753650;30;20052;-90
2023/02/07 04:37:16;;;;;;;40.50;14.95;;;-5.60;99.90;;;;;;4733524;30;20055;-91
2023/02/07 04:39:44;;;;;;;43.22;13.43;;;-5.70;99.90;;;;;;4744278;30;20117;-90
2023/02/07 04:42:12;;;;;;;46.42;14.80;;;-5.70;99.90;;;;;;4740745;30;20063;-90
2023/02/07 04:44:42;;;;;;;41.65;15.30;;;-5.70;99.90;;;;;;4723448;30;20059;-89
2023/02/07 04:47:09;;;;;;;45.40;15.50;;;-5.70;99.90;;;;;;4751677;30;20112;-88
2023/02/07 04:49:39;;;;;;;36.13;13.65;;;-5.70;99.90;;;;;;4741117;30;20032;-89
2023/02/07 04:52:07;;;;;;;46.38;15.05;;;-4.80;99.90;;;;;;4724816;30;20041;-89
2023/02/07 04:54:35;;;;;;;38.17;14.75;;;-5.70;99.90;;;;;;4753151;30;20059;-88
2023/02/07 04:57:09;;;;;;;45.13;14.43;;;-5.50;99.90;;;;;;4726971;30;20053;-89
2023/02/07 04:59:38;;;;;;;59.33;16.35;;;-5.60;99.90;;;;;;4740001;30;20048;-89
2023/02/07 05:02:06;;;;;;;45.55;13.52;;;-5.20;99.90;;;;;;4728175;30;20052;-83
2023/02/07 05:04:33;;;;;;;51.33;16.35;;;-5.70;99.90;;;;;;4724008;30;20042;-86
2023/02/07 05:07:00;;;;;;;40.40;14.48;;;-5.70;99.90;;;;;;4716203;30;20073;-88
2023/02/07 05:09:30;;;;;;;51.33;16.10;;;-5.40;99.90;;;;;;4722909;30;20061;-87
2023/02/07 05:11:57;;;;;;;45.20;16.95;;;-5.70;99.90;;;;;;4733188;30;20057;-86
2023/02/07 05:14:25;;;;;;;48.63;15.13;;;-5.70;99.90;;;;;;4735827;30;20522;-84
2023/02/07 05:16:52;;;;;;;52.88;15.80;;;-5.60;99.90;;;;;;4726431;30;20041;-88
2023/02/07 05:19:19;;;;;;;57.17;15.88;;;-5.60;99.90;;;;;;4725170;30;20083;-81
2023/02/07 05:21:47;;;;;;;49.72;18.58;;;-5.70;99.90;;;;;;4731096;30;20073;-85
2023/02/07 05:24:16;;;;;;;50.88;15.73;;;-5.70;99.90;;;;;;4722402;30;20049;-88
2023/02/07 05:26:43;;;;;;;52.30;18.52;;;-5.70;99.90;;;;;;4708034;30;20050;-86
2023/02/07 05:29:11;;;;;;;54.13;17.48;;;-5.40;99.90;;;;;;4721106;30;20049;-85
2023/02/07 05:34:34;;;;;;;50.22;17.60;;;-5.80;99.90;;;;;;4719347;30;20045;-91
2023/02/07 05:37:03;;;;;;;63.42;20.33;;;-5.70;99.90;;;;;;4724323;30;20076;-88
2023/02/07 05:39:31;;;;;;;78.60;23.45;;;-5.80;99.90;;;;;;4727661;30;20125;-88
2023/02/07 05:41:58;;;;;;;72.22;22.98;;;-4.60;99.90;;;;;;4732438;30;20115;-89
2023/02/07 05:44:25;;;;;;;60.08;20.98;;;-5.80;99.90;;;;;;4739532;30;20053;-89
2023/02/07 05:46:57;;;;;;;72.23;25.80;;;-5.70;99.90;;;;;;4748511;30;20076;-87
2023/02/07 05:49:24;;;;;;;87.15;26.50;;;-5.70;99.90;;;;;;4741712;30;20132;-90
2023/02/07 05:51:51;;;;;;;91.30;31.27;;;-5.70;99.90;;;;;;4739935;30;20048;-88
2023/02/07 05:54:19;;;;;;;100.10;33.05;;;-5.20;99.90;;;;;;4738020;30;20092;-88
2023/02/07 05:56:46;;;;;;;80.95;28.25;;;-5.80;99.90;;;;;;4740317;30;20053;-88
2023/02/07 05:59:14;;;;;;;95.80;29.63;;;-5.80;99.90;;;;;;4739158;30;20036;-86
2023/02/07 06:01:41;;;;;;;88.30;30.25;;;-5.80;99.90;;;;;;4740800;30;20061;-88
2023/02/07 06:04:10;;;;;;;66.82;23.08;;;-5.80;99.90;;;;;;4716387;30;20057;-83
2023/02/07 06:06:40;;;;;;;86.53;24.70;;;-5.90;99.90;;;;;;4702669;30;20421;-85
2023/02/07 06:09:11;;;;;;;70.03;24.67;;;-5.80;99.90;;;;;;4715750;30;20080;-84
2023/02/07 06:11:39;;;;;;;98.22;28.85;;;-5.50;99.90;;;;;;4711456;30;20084;-86
2023/02/07 06:14:07;;;;;;;97.45;29.42;;;-5.90;99.90;;;;;;4703634;30;20101;-86
2023/02/07 06:16:34;;;;;;;105.63;31.55;;;-5.70;99.90;;;;;;4707159;30;20057;-88
2023/02/07 06:19:04;;;;;;;80.30;27.90;;;-5.90;99.90;;;;;;4688166;30;20060;-88
2023/02/07 06:21:32;;;;;;;91.22;27.83;;;-5.80;99.90;;;;;;4674828;30;20060;-90
2023/02/07 06:24:12;;;;;;;88.45;26.48;;;-5.90;99.90;;;;;;4719846;30;20092;-82
2023/02/07 06:26:41;;;;;;;83.93;26.00;;;-5.90;99.90;;;;;;4713615;30;20081;-85
2023/02/07 06:29:08;;;;;;;70.20;23.85;;;-5.80;99.90;;;;;;4699109;30;20053;-88
2023/02/07 06:31:35;;;;;;;66.30;22.77;;;-5.80;99.90;;;;;;4704459;30;20064;-87
2023/02/07 06:34:02;;;;;;;83.35;25.92;;;-5.80;99.90;;;;;;4699070;30;20046;-86
2023/02/07 06:36:32;;;;;;;77.88;26.92;;;-5.80;99.90;;;;;;4704182;30;20084;-83
2023/02/07 06:39:00;;;;;;;94.30;27.15;;;-5.50;99.90;;;;;;4700241;30;20053;-82
2023/02/07 06:41:27;;;;;;;77.68;27.20;;;-5.90;99.90;;;;;;4727284;30;20061;-87
2023/02/07 06:43:55;;;;;;;73.30;26.73;;;-5.90;99.90;;;;;;4705924;30;20033;-88
2023/02/07 06:46:25;;;;;;;72.15;26.27;;;-5.80;99.90;;;;;;4731922;30;20045;-82
2023/02/07 06:48:58;;;;;;;75.85;24.52;;;-5.80;99.90;;;;;;4724396;30;20442;-85
2023/02/07 06:51:27;;;;;;;73.75;23.40;;;-5.80;99.90;;;;;;4732506;30;20045;-84
2023/02/07 06:53:54;;;;;;;68.80;24.77;;;-5.70;99.90;;;;;;4703952;30;20113;-84
2023/02/07 06:56:22;;;;;;;72.22;25.75;;;-5.70;99.90;;;;;;4718762;30;20104;-81
2023/02/07 06:58:50;;;;;;;62.75;23.58;;;-4.90;99.90;;;;;;4678625;30;20050;-84
2023/02/07 07:01:18;;;;;;;74.50;26.17;;;-5.60;99.90;;;;;;4674758;30;20073;-79
2023/02/07 07:03:46;;;;;;;65.18;23.20;;;-5.40;99.90;;;;;;4683712;30;20093;-80
2023/02/07 07:06:13;;;;;;;56.90;22.52;;;-5.40;99.90;;;;;;4697763;30;20616;-80
2023/02/07 07:08:40;;;;;;;70.53;25.40;;;-4.50;99.90;;;;;;4709847;30;20060;-80
2023/02/07 07:11:07;;;;;;;48.05;21.77;;;-5.30;99.90;;;;;;4714139;30;20205;-79
2023/02/07 07:13:34;;;;;;;60.38;24.05;;;-5.20;99.90;;;;;;4712906;30;20058;-80
2023/02/07 07:16:02;;;;;;;53.60;17.98;;;-5.20;99.90;;;;;;4699490;30;20060;-80
2023/02/07 07:18:29;;;;;;;50.50;18.40;;;-5.10;99.90;;;;;;4705519;30;20407;-79
2023/02/07 07:20:56;;;;;;;58.28;21.33;;;-5.00;99.90;;;;;;4706822;30;20688;-80
2023/02/07 07:23:23;;;;;;;69.95;23.00;;;-4.90;99.90;;;;;;4706160;30;20148;-79
2023/02/07 07:25:51;;;;;;;72.90;25.15;;;-4.90;99.90;;;;;;4693920;30;21585;-79
2023/02/07 07:28:18;;;;;;;70.32;24.25;;;-4.80;99.90;;;;;;4705361;30;20052;-79
2023/02/07 07:30:46;;;;;;;68.57;23.90;;;-4.70;99.90;;;;;;4705405;30;20449;-80
2023/02/07 07:33:14;;;;;;;80.82;25.90;;;-3.60;99.90;;;;;;4708458;30;20047;-79
2023/02/07 07:35:41;;;;;;;67.10;26.15;;;-4.60;99.90;;;;;;4710789;30;20135;-79
2023/02/07 07:38:08;;;;;;;55.38;20.80;;;-4.00;99.90;;;;;;4711875;30;20052;-79
2023/02/07 07:40:35;;;;;;;60.78;21.80;;;-4.50;99.90;;;;;;4695497;30;20429;-78
2023/02/07 07:43:02;;;;;;;65.13;22.45;;;-4.30;99.90;;;;;;4725511;30;20076;-78
2023/02/07 07:45:39;;;;;;;66.00;22.52;;;-4.30;99.90;;;;;;4720290;30;20048;-77
2023/02/07 07:48:06;;;;;;;64.00;23.77;;;-4.20;99.90;;;;;;4725598;30;20044;-78
2023/02/07 07:50:33;;;;;;;52.17;20.52;;;-4.10;99.90;;;;;;4721594;30;20524;-78
2023/02/07 07:53:00;;;;;;;73.53;24.92;;;-4.10;99.90;;;;;;4727206;30;20048;-79
2023/02/07 07:55:27;;;;;;;83.82;29.33;;;-4.00;99.90;;;;;;4726980;30;20599;-78
2023/02/07 07:57:55;;;;;;;91.50;31.42;;;-4.00;99.90;;;;;;4711734;30;20057;-77
2023/02/07 08:00:22;;;;;;;96.22;32.00;;;-3.90;99.90;;;;;;4711526;30;20063;-77
2023/02/07 08:02:49;;;;;;;92.07;32.22;;;-3.90;99.90;;;;;;4707987;30;20465;-77
2023/02/07 08:05:16;;;;;;;123.00;42.38;;;-3.80;99.90;;;;;;4727714;30;20048;-77
2023/02/07 08:07:43;;;;;;;132.35;43.03;;;-3.80;99.90;;;;;;4725750;30;20048;-77
2023/02/07 08:10:10;;;;;;;114.65;42.70;;;-3.70;99.90;;;;;;4720505;30;20521;-77
2023/02/07 08:12:37;;;;;;;92.82;32.13;;;-3.60;99.90;;;;;;4716103;30;20147;-77
2023/02/07 08:15:08;;;;;;;89.28;33.00;;;-3.60;99.90;;;;;;4723437;30;20072;-76
2023/02/07 08:17:36;;;;;;;77.60;28.55;;;-3.50;99.90;;;;;;4709482;30;20127;-76
2023/02/07 08:20:04;;;;;;;92.93;32.28;;;-3.40;99.90;;;;;;4712158;30;20051;-77
2023/02/07 08:22:31;;;;;;;96.00;35.13;;;-3.30;99.90;;;;;;4728878;30;20050;-77
2023/02/07 08:24:58;;;;;;;185.48;56.30;;;-3.30;99.90;;;;;;4703252;30;20076;-77
2023/02/07 08:27:25;;;;;;;101.65;36.33;;;-3.20;99.90;;;;;;4720035;30;20040;-76
2023/02/07 08:29:52;;;;;;;101.60;34.75;;;-3.00;99.90;;;;;;4722679;30;20045;-76
2023/02/07 08:32:19;;;;;;;96.97;33.50;;;-3.00;99.90;;;;;;4720330;30;20432;-76
2023/02/07 08:34:46;;;;;;;86.60;31.63;;;-3.00;99.90;;;;;;4706690;30;20048;-76
2023/02/07 08:37:13;;;;;;;88.60;32.25;;;-3.00;99.90;;;;;;4713166;30;20041;-77
2023/02/07 08:39:40;;;;;;;77.07;31.75;;;-3.20;99.90;;;;;;4724941;30;20055;-77
2023/02/07 08:42:08;;;;;;;78.30;29.05;;;-3.20;99.90;;;;;;4710839;30;20040;-77
2023/02/07 08:44:36;;;;;;;85.18;28.63;;;-3.20;99.90;;;;;;4722506;30;23574;-78
2023/02/07 08:47:04;;;;;;;86.93;30.75;;;-3.10;99.90;;;;;;4721013;30;20518;-77
2023/02/07 08:49:31;;;;;;;81.85;29.17;;;-3.10;99.90;;;;;;4711900;30;20506;-77
2023/02/07 08:51:58;;;;;;;73.18;29.83;;;-3.00;99.90;;;;;;4723610;30;20044;-77
2023/02/07 08:54:25;;;;;;;79.40;30.00;;;-3.00;99.90;;;;;;4701665;30;20060;-76
2023/02/07 08:56:52;;;;;;;68.05;25.85;;;-2.90;99.90;;;;;;4704952;30;20064;-76
2023/02/07 08:59:19;;;;;;;78.70;29.45;;;-2.90;99.90;;;;;;4728293;30;20060;-76
2023/02/07 09:01:46;;;;;;;88.55;35.13;;;-2.80;99.90;;;;;;4717356;30;20056;-76
2023/02/07 09:04:13;;;;;;;63.30;25.27;;;-2.70;99.90;;;;;;4717075;30;20061;-77
2023/02/07 09:06:40;;;;;;;54.80;24.48;;;-2.60;98.80;;;;;;4703588;30;20044;-77
2023/02/07 09:09:08;;;;;;;71.63;28.10;;;-2.50;98.20;;;;;;4706305;30;20663;-77
2023/02/07 09:11:36;;;;;;;79.82;29.10;;;-2.40;98.00;;;;;;4721281;30;20778;-77
2023/02/07 09:14:05;;;;;;;71.25;26.05;;;-2.20;97.60;;;;;;4708612;30;20111;-77
2023/02/07 09:16:32;;;;;;;62.55;23.67;;;-2.10;96.90;;;;;;4703226;30;20071;-78
2023/02/07 09:18:59;;;;;;;59.70;23.70;;;-2.00;97.00;;;;;;4719757;30;20076;-78
2023/02/07 09:21:26;;;;;;;73.07;28.15;;;-1.90;97.40;;;;;;4707972;30;20056;-78
2023/02/07 09:23:53;;;;;;;73.63;27.15;;;-1.90;95.70;;;;;;4725263;30;20044;-77
2023/02/07 09:26:22;;;;;;;77.60;29.67;;;-1.90;95.20;;;;;;4709872;30;20048;-77
2023/02/07 09:28:49;;;;;;;74.40;28.80;;;-1.70;95.30;;;;;;4712331;30;20059;-78
2023/02/07 09:31:16;;;;;;;67.07;26.77;;;-1.70;94.40;;;;;;4710795;30;20445;-77
2023/02/07 09:33:43;;;;;;;70.95;28.48;;;-1.60;94.60;;;;;;4723825;30;20600;-77
2023/02/07 09:36:25;;;;;;;66.80;26.08;;;-1.60;94.50;;;;;;4723741;30;20051;-76
2023/02/07 09:38:52;;;;;;;62.78;23.23;;;-1.50;94.20;;;;;;4727901;30;20517;-76
2023/02/07 09:41:41;;;;;;;51.67;20.90;;;-1.50;93.30;;;;;;4722254;30;20057;-76
2023/02/07 09:44:27;;;;;;;55.88;25.10;;;-1.40;93.00;;;;;;4694103;30;20053;-76
2023/02/07 09:47:00;;;;;;;60.97;21.48;;;-1.40;92.80;;;;;;4704704;30;20509;-76
2023/02/07 09:49:46;;;;;;;59.13;23.00;;;-1.30;92.60;;;;;;4720912;30;20170;-76
2023/02/07 09:52:20;;;;;;;50.88;21.42;;;-1.10;93.10;;;;;;4712640;30;20070;-77
2023/02/07 09:54:53;;;;;;;54.90;22.02;;;-1.00;93.50;;;;;;4705655;30;20669;-77
2023/02/07 09:57:26;;;;;;;60.92;22.08;;;-0.90;93.30;;;;;;4710049;30;20493;-77
2023/02/07 10:00:12;;;;;;;;;;;-0.90;92.30;;;;;;4704706;30;20056;-77
2023/02/07 10:03:02;;;;;;;41.70;16.92;;;-0.80;92.70;;;;;;4708602;30;20561;-78
2023/02/07 10:05:39;;;;;;;48.22;19.92;;;-0.80;91.20;;;;;;4692004;30;20075;-78
2023/02/07 10:08:14;;;;;;;51.95;20.33;;;-0.80;91.30;;;;;;4705416;30;20062;-78
2023/02/07 10:10:46;;;;;;;44.75;17.52;;;-0.70;91.30;;;;;;4708098;30;20664;-78
2023/02/07 10:13:34;;;;;;;47.53;17.17;;;-0.50;91.30;;;;;;4716522;30;20072;-78
2023/02/07 10:16:07;;;;;;;37.47;15.15;;;-0.70;90.00;;;;;;4704863;30;20036;-78
2023/02/07 10:18:44;;;;;;;31.30;12.80;;;-0.80;89.20;;;;;;4724824;30;20061;-77
2023/02/07 10:21:29;;;;;;;32.15;13.48;;;-0.70;89.50;;;;;;4726191;30;20152;-77
2023/02/07 10:24:31;;;;;;;27.88;10.00;;;-0.60;88.90;;;;;;4712079;30;20056;-78
2023/02/07 10:27:04;;;;;;;31.20;10.40;;;-0.60;87.20;;;;;;4683201;30;20064;-78
2023/02/07 10:29:50;;;;;;;;;;;-0.40;86.40;;;;;;4712339;30;20057;-78
2023/02/07 10:32:22;;;;;;;17.27;7.53;;;-0.30;84.70;;;;;;4712071;30;19926;-78
2023/02/07 10:34:54;;;;;;;29.50;9.90;;;-0.30;83.30;;;;;;4729369;30;20163;-77
2023/02/07 10:37:27;;;;;;;29.25;10.35;;;-0.20;85.30;;;;;;4707255;30;20056;-77
2023/02/07 10:40:21;;;;;;;22.75;9.60;;;-0.10;86.00;;;;;;4729490;30;20060;-77
2023/02/07 10:43:10;;;;;;;21.83;7.43;;;-0.10;83.00;;;;;;4712948;30;21731;-77
2023/02/07 10:45:41;;;;;;;21.98;7.03;;;0.10;83.80;;;;;;4706979;30;20123;-77
2023/02/07 10:48:14;;;;;;;20.73;6.35;;;0.10;83.10;;;;;;4724617;30;20044;-77
2023/02/07 10:50:42;;;;;;;20.15;8.70;;;0.20;83.50;;;;;;4709938;30;20193;-77
2023/02/07 10:53:09;;;;;;;11.23;4.35;;;0.20;81.90;;;;;;4709613;30;20468;-78
2023/02/07 10:55:46;;;;;;;20.42;7.22;;;0.30;83.10;;;;;;4726704;30;20041;-78
2023/02/07 10:58:22;;;;;;;18.65;7.65;;;0.30;82.30;;;;;;4707856;30;20087;-78
2023/02/07 11:00:54;;;;;;;23.67;8.93;;;0.30;81.30;;;;;;4708499;30;20051;-79
2023/02/07 11:03:25;;;;;;;21.70;7.78;;;0.50;83.70;;;;;;4700749;30;20183;-78
2023/02/07 11:05:54;;;;;;;20.45;7.88;;;0.50;82.50;;;;;;4720717;30;20151;-79
2023/02/07 11:08:32;;;;;;;23.85;9.23;;;0.40;81.30;;;;;;4716897;30;20568;-78
2023/02/07 11:11:29;;;;;;;21.27;8.32;;;0.60;81.50;;;;;;4706149;30;20586;-77
2023/02/07 11:14:02;;;;;;;21.48;7.25;;;0.60;80.90;;;;;;4708649;30;20047;-78
2023/02/07 11:16:29;;;;;;;18.17;7.95;;;0.60;78.90;;;;;;4723450;30;20056;-78
2023/02/07 11:18:58;;;;;;;18.95;6.97;;;0.70;80.00;;;;;;4711840;30;20582;-78
2023/02/07 11:21:41;;;;;;;16.42;6.35;;;0.70;77.30;;;;;;4704580;30;20067;-78
2023/02/07 11:24:30;;;;;;;18.88;6.93;;;0.70;77.30;;;;;;4731019;30;20072;-79
2023/02/07 11:27:03;;;;;;;20.42;8.10;;;0.80;77.40;;;;;;4712314;30;20049;-78
2023/02/07 11:29:46;;;;;;;19.02;6.80;;;0.80;77.80;;;;;;4712670;30;20099;-78
2023/02/07 11:32:15;;;;;;;18.58;5.70;;;0.80;77.30;;;;;;4711019;30;20501;-78
2023/02/07 11:34:47;;;;;;;22.70;8.57;;;0.90;77.50;;;;;;4712391;30;20049;-78
2023/02/07 11:37:29;;;;;;;18.05;7.10;;;0.90;76.70;;;;;;4710523;30;20259;-78
2023/02/07 11:40:17;;;;;;;21.48;6.88;;;0.90;76.10;;;;;;4709376;30;20053;-78
2023/02/07 11:42:55;;;;;;;16.42;6.18;;;0.90;75.80;;;;;;4708781;30;20421;-78
2023/02/07 11:45:23;;;;;;;30.73;8.60;;;0.90;75.10;;;;;;4705842;30;22015;-77
2023/02/07 11:47:54;;;;;;;20.27;6.70;;;1.10;77.80;;;;;;4708903;30;20053;-77
2023/02/07 11:50:26;;;;;;;21.83;8.07;;;1.10;75.60;;;;;;4708480;30;20056;-79
2023/02/07 11:52:58;;;;;;;16.70;6.70;;;1.00;74.00;;;;;;4710677;30;20053;-77
2023/02/07 11:55:34;;;;;;;20.92;8.20;;;1.00;73.80;;;;;;4711823;30;20052;-77
2023/02/07 11:58:15;;;;;;;16.30;6.25;;;1.10;74.00;;;;;;4726310;30;20418;-78
2023/02/07 12:00:43;;;;;;;16.48;6.20;;;1.10;74.70;;;;;;4717798;30;20049;-78
2023/02/07 12:03:41;;;;;;;17.63;6.45;;;1.20;75.30;;;;;;4709693;30;20052;-78
2023/02/07 12:06:14;;;;;;;18.90;7.25;;;1.30;74.80;;;;;;4704514;30;20532;-78
2023/02/07 12:08:43;;;;;;;18.60;6.95;;;1.30;71.60;;;;;;4712125;30;20067;-78
2023/02/07 12:11:22;;;;;;;17.60;7.07;;;1.10;71.10;;;;;;4705780;30;20053;-78
2023/02/07 12:13:55;;;;;;;14.88;5.85;;;1.10;70.70;;;;;;4703065;30;20461;-78
2023/02/07 12:16:31;;;;;;;;;;;1.00;71.20;;;;;;4725494;30;20136;-78
2023/02/07 12:19:23;;;;;;;16.70;6.20;;;1.10;70.40;;;;;;4716280;30;20338;-78
2023/02/07 12:22:04;;;;;;;17.80;6.10;;;1.00;69.80;;;;;;4712307;30;20549;-78
2023/02/07 12:24:35;;;;;;;15.38;6.07;;;1.00;70.10;;;;;;4710879;30;20306;-78
2023/02/07 12:27:13;;;;;;;13.27;5.22;;;1.10;72.90;;;;;;4724357;30;21408;-79
2023/02/07 12:30:14;;;;;;;17.58;5.80;;;1.30;73.80;;;;;;4712046;30;20044;-79
2023/02/07 12:32:48;;;;;;;16.00;5.85;;;1.30;73.60;;;;;;4706305;30;20044;-79
2023/02/07 12:35:32;;;;;;;16.52;5.65;;;1.30;74.20;;;;;;4723906;30;20052;-78
2023/02/07 12:38:27;;;;;;;15.73;5.72;;;1.20;72.00;;;;;;4708512;30;20067;-78
2023/02/07 12:41:01;;;;;;;13.15;5.95;;;1.30;73.20;;;;;;4698521;30;20048;-78
2023/02/07 12:43:33;;;;;;;14.90;5.93;;;1.20;71.50;;;;;;4707797;30;20072;-78
2023/02/07 12:46:00;;;;;;;16.98;7.22;;;1.10;70.10;;;;;;4704173;30;20705;-78
2023/02/07 12:49:17;;;;;;;13.55;6.10;;;1.10;69.50;;;;;;4705923;30;20045;-78
2023/02/07 12:52:23;;;;;;;15.98;6.03;;;1.10;69.30;;;;;;4655627;30;20117;-78
2023/02/07 12:55:11;;;;;;;17.70;7.10;;;1.10;69.70;;;;;;4648363;30;20058;-78
2023/02/07 12:57:46;;;;;;;25.63;10.35;;;1.10;69.30;;;;;;4702377;30;20052;-78
2023/02/07 13:00:13;;;;;;;24.20;10.80;;;1.20;69.90;;;;;;4706392;30;20055;-78
2023/02/07 13:03:09;;;;;;;19.00;7.50;;;1.20;69.20;;;;;;4716130;30;20518;-78
2023/02/07 13:06:03;;;;;;;15.52;6.00;;;1.20;69.20;;;;;;4700390;30;20065;-78
2023/02/07 13:08:45;;;;;;;15.98;6.95;;;1.10;68.90;;;;;;4703611;30;20070;-78
2023/02/07 13:11:37;;;;;;;17.67;7.60;;;1.10;69.30;;;;;;4703383;30;21483;-78
2023/02/07 13:14:35;;;;;;;15.63;6.88;;;1.20;71.40;;;;;;4699032;30;20053;-78
2023/02/07 13:17:06;;;;;;;16.30;7.10;;;1.20;71.60;;;;;;4709022;30;20057;-78
2023/02/07 13:19:47;;;;;;;12.55;6.35;;;1.20;71.20;;;;;;4708609;30;20541;-78
2023/02/07 13:22:29;;;;;;;17.45;6.85;;;1.30;70.90;;;;;;4700329;30;20056;-78
2023/02/07 13:24:58;;;;;;;17.90;6.63;;;1.30;71.70;;;;;;4712875;30;20060;-80
2023/02/07 13:27:28;;;;;;;19.52;6.93;;;1.30;71.50;;;;;;4709552;30;20088;-79
2023/02/07 13:29:56;;;;;;;17.33;6.75;;;1.30;72.40;;;;;;4709934;30;20072;-79
2023/02/07 13:32:25;;;;;;;14.00;6.18;;;1.30;72.70;;;;;;4708516;30;20521;-80
2023/02/07 13:35:14;;;;;;;13.25;5.45;;;1.20;72.00;;;;;;4708760;30;20044;-79
2023/02/07 13:37:54;;;;;;;19.88;7.78;;;1.20;72.50;;;;;;4721872;30;20070;-79
2023/02/07 13:40:24;;;;;;;18.20;6.85;;;1.20;73.70;;;;;;4709047;30;20091;-79
2023/02/07 13:42:54;;;;;;;22.42;7.97;;;1.20;72.40;;;;;;4721363;30;20433;-79
2023/02/07 13:45:42;;;;;;;18.33;5.10;;;1.10;73.30;;;;;;4720891;30;20056;-79
2023/02/07 13:48:25;;;;;;;21.20;6.53;;;1.10;74.20;;;;;;4686658;30;20049;-78
2023/02/07 13:51:31;;;;;;;21.67;7.95;;;1.10;73.20;;;;;;4704398;30;20652;-78
2023/02/07 13:54:35;;;;;;;21.55;7.55;;;1.00;72.30;;;;;;4684483;30;21213;-78
2023/02/07 14:00:15;;;;;;;32.13;14.60;;;1.00;72.90;;;;;;4721248;30;20084;-79
2023/02/07 14:03:03;;;;;;;26.25;10.60;;;0.90;71.90;;;;;;4715400;30;20093;-79
2023/02/07 14:05:42;;;;;;;24.45;8.18;;;0.90;72.30;;;;;;4703685;30;20053;-79
2023/02/07 14:08:15;;;;;;;16.77;6.72;;;0.90;73.00;;;;;;4718065;30;20048;-79
2023/02/07 14:10:55;;;;;;;16.27;6.15;;;0.80;73.40;;;;;;4702521;30;20440;-78
2023/02/07 14:13:33;;;;;;;21.48;7.63;;;0.80;73.60;;;;;;4704335;30;20072;-78
2023/02/07 14:16:05;;;;;;;20.20;7.38;;;0.80;73.20;;;;;;4703769;30;20057;-78
2023/02/07 14:18:43;;;;;;;213.18;48.90;;;0.80;73.60;;;;;;4705844;30;20056;-79
2023/02/07 14:21:22;;;;;;;30.65;11.40;;;0.70;73.00;;;;;;4708296;30;20076;-79
2023/02/07 14:23:59;;;;;;;25.48;10.10;;;0.70;74.00;;;;;;4720376;30;20060;-79
2023/02/07 14:26:39;;;;;;;29.38;13.60;;;0.70;74.10;;;;;;4718617;30;20469;-79
2023/02/07 14:29:21;;;;;;;27.77;14.40;;;0.70;72.00;;;;;;4705787;30;20525;-79
2023/02/07 14:32:14;;;;;;;17.48;8.10;;;0.60;72.10;;;;;;4703508;30;20414;-79
2023/02/07 14:35:24;;;;;;;16.77;7.18;;;0.60;72.10;;;;;;4707861;30;20049;-79
2023/02/07 14:37:55;;;;;;;16.35;7.35;;;0.60;73.00;;;;;;4723645;30;20048;-79
2023/02/07 14:40:34;;;;;;;18.73;6.55;;;0.60;73.80;;;;;;4723035;30;20052;-79
2023/02/07 14:43:05;;;;;;;17.90;8.13;;;0.50;74.30;;;;;;4703130;30;20060;-79
2023/02/07 14:45:35;;;;;;;15.95;5.65;;;0.50;73.90;;;;;;4721418;30;20071;-78
2023/02/07 14:48:05;;;;;;;17.58;6.45;;;0.50;73.70;;;;;;4707381;30;20044;-79
2023/02/07 14:50:34;;;;;;;15.95;6.63;;;0.50;73.90;;;;;;4722861;30;20060;-79
2023/02/07 14:53:04;;;;;;;19.90;6.75;;;0.50;74.00;;;;;;4718214;30;20111;-79
2023/02/07 14:55:54;;;;;;;21.67;6.88;;;0.40;74.10;;;;;;4720125;30;20110;-79
2023/02/07 14:58:30;;;;;;;27.40;8.70;;;0.40;74.70;;;;;;4721729;30;20053;-79
2023/02/07 15:00:58;;;;;;;26.08;10.85;;;0.40;75.00;;;;;;4703891;30;20056;-79
2023/02/07 15:03:29;;;;;;;20.23;8.88;;;0.30;75.30;;;;;;4714754;30;20053;-79